Time;durP1;ratioP1;P1;durP2;ratioP2;P2;SDS_P1;SDS_P2;PMS_P1;PMS_P2;Temp;Humidity;BMP_temperature;BMP_pressure;BME280_temperature;BME280_humidity;BME280_pressure;Samples;Min_cycle;Max_cycle;Signal;HPM_P1;HPM_P2
2023/05/27 00:01:33;;;;;;;13.15;4.45;;;;;13.50;97110.00;;;;8202004;28;20684;-64
2023/05/27 00:05:36;;;;;;;9.32;3.60;;;;;13.40;97112.00;;;;8201546;28;20265;-67
2023/05/27 00:09:43;;;;;;;11.18;4.15;;;;;13.30;97110.00;;;;8203597;28;20211;-65
2023/05/27 00:13:47;;;;;;;12.15;4.18;;;;;13.30;97112.00;;;;8214349;28;20220;-64
2023/05/27 00:17:52;;;;;;;12.48;4.35;;;;;13.20;97115.00;;;;8210972;28;20211;-67
2023/05/27 00:21:55;;;;;;;6.55;3.35;;;;;13.20;97108.00;;;;8199390;28;20627;-65
2023/05/27 00:25:59;;;;;;;12.05;4.32;;;;;13.20;97105.00;;;;8201401;28;20304;-65
2023/05/27 00:30:03;;;;;;;12.02;3.90;;;;;13.30;97101.00;;;;8195488;28;20226;-66
2023/05/27 00:34:06;;;;;;;17.30;4.53;;;;;13.40;97093.00;;;;8216149;28;20234;-63
2023/05/27 00:38:12;;;;;;;11.15;3.50;;;;;13.40;97093.00;;;;8218314;28;20292;-70
2023/05/27 00:42:17;;;;;;;13.43;3.70;;;;;13.50;97088.00;;;;8225931;28;20325;-65
2023/05/27 00:46:21;;;;;;;14.68;4.03;;;;;13.40;97096.00;;;;8221044;28;20229;-64
2023/05/27 00:50:27;;;;;;;14.70;3.88;;;;;13.40;97092.00;;;;8216656;28;20261;-65
2023/05/27 00:54:33;;;;;;;11.52;4.10;;;;;13.40;97087.00;;;;8216116;28;20239;-64
2023/05/27 00:58:38;;;;;;;10.43;3.60;;;;;13.40;97086.00;;;;8223382;28;20322;-67
2023/05/27 01:02:43;;;;;;;12.82;3.60;;;;;13.30;97081.00;;;;8223381;28;20239;-65
2023/05/27 01:06:56;;;;;;;12.80;3.33;;;;;13.30;97077.00;;;;8221400;28;20217;-67
2023/05/27 01:10:59;;;;;;;12.13;3.53;;;;;13.30;97074.00;;;;8219246;28;20740;-65
2023/05/27 01:15:08;;;;;;;14.50;4.13;;;;;13.40;97072.00;;;;8199565;28;20220;-66
2023/05/27 01:19:18;;;;;;;10.50;3.20;;;;;13.40;97072.00;;;;8219144;28;20313;-66
2023/05/27 01:23:25;;;;;;;14.27;3.78;;;;;13.40;97070.00;;;;8218992;28;20226;-64
2023/05/27 01:27:28;;;;;;;16.38;4.10;;;;;13.40;97064.00;;;;8217074;28;20204;-61
2023/05/27 01:31:42;;;;;;;13.07;3.67;;;;;13.50;97059.00;;;;8216097;28;20220;-66
2023/05/27 01:35:49;;;;;;;14.43;3.58;;;;;13.50;97061.00;;;;8214538;28;20215;-65
2023/05/27 01:39:56;;;;;;;14.75;3.85;;;;;13.40;97063.00;;;;8210701;28;20534;-60
2023/05/27 01:43:59;;;;;;;16.45;4.25;;;;;13.40;97063.00;;;;8219034;28;20261;-63
2023/05/27 01:48:02;;;;;;;10.07;3.90;;;;;13.30;97060.00;;;;8215470;28;20329;-66
2023/05/27 01:52:09;;;;;;;13.68;4.00;;;;;13.40;97058.00;;;;8201565;28;20243;-69
2023/05/27 01:56:14;;;;;;;11.57;4.28;;;;;13.30;97061.00;;;;8219372;28;20216;-65
2023/05/27 02:00:24;;;;;;;12.02;3.80;;;;;13.30;97067.00;;;;8216048;28;20663;-65
2023/05/27 02:04:27;;;;;;;14.95;4.18;;;;;13.40;97057.00;;;;8214942;28;20242;-68
2023/05/27 02:08:30;;;;;;;11.15;3.40;;;;;13.40;97061.00;;;;8221301;28;20214;-67
2023/05/27 02:12:36;;;;;;;11.23;3.60;;;;;13.30;97061.00;;;;8234302;28;20288;-64
2023/05/27 02:16:40;;;;;;;12.07;3.55;;;;;13.40;97050.00;;;;8220639;28;20235;-68
2023/05/27 02:20:43;;;;;;;10.30;3.80;;;;;13.40;97055.00;;;;8227960;28;20207;-67
2023/05/27 02:24:49;;;;;;;14.50;3.90;;;;;13.50;97050.00;;;;8225121;28;20249;-61
2023/05/27 02:28:55;;;;;;;10.15;3.90;;;;;13.50;97049.00;;;;8217289;28;20206;-67
2023/05/27 02:32:59;;;;;;;14.50;3.75;;;;;13.50;97047.00;;;;8223018;28;20197;-68
2023/05/27 02:37:02;;;;;;;18.55;4.13;;;;;13.60;97047.00;;;;8229954;28;20206;-68
2023/05/27 02:41:09;;;;;;;10.45;3.88;;;;;13.60;97048.00;;;;8218295;28;20224;-63
2023/05/27 02:45:15;;;;;;;12.93;4.30;;;;;13.60;97042.00;;;;8206082;28;20260;-62
2023/05/27 02:49:19;;;;;;;18.15;3.88;;;;;13.50;97046.00;;;;8220504;28;20243;-65
2023/05/27 02:53:22;;;;;;;8.18;3.55;;;;;13.50;97042.00;;;;8203658;28;20857;-62
2023/05/27 02:57:25;;;;;;;15.45;4.47;;;;;13.50;97038.00;;;;8228379;28;20206;-63
2023/05/27 03:05:49;;;;;;;12.32;4.25;;;;;13.40;97042.00;;;;8249525;28;20232;-66
2023/05/27 03:09:56;;;;;;;14.50;4.05;;;;;13.40;97041.00;;;;8271064;28;20215;-68
2023/05/27 03:14:02;;;;;;;11.60;3.90;;;;;13.40;97046.00;;;;8271816;28;20234;-64
2023/05/27 03:18:05;;;;;;;16.70;4.13;;;;;13.40;97045.00;;;;8260445;28;20556;-69
2023/05/27 03:22:10;;;;;;;13.25;3.72;;;;;13.40;97047.00;;;;8271771;28;20225;-66
2023/05/27 03:26:15;;;;;;;17.08;3.75;;;;;13.30;97045.00;;;;8252976;28;20769;-63
2023/05/27 03:30:20;;;;;;;13.05;3.47;;;;;13.30;97047.00;;;;8266320;28;20213;-61
2023/05/27 03:34:24;;;;;;;12.13;3.78;;;;;13.20;97036.00;;;;8266726;28;20333;-66
2023/05/27 03:38:29;;;;;;;15.13;4.00;;;;;13.20;97044.00;;;;8262361;28;20225;-66
2023/05/27 03:42:32;;;;;;;12.30;3.85;;;;;13.20;97037.00;;;;8262704;28;20292;-65
2023/05/27 03:46:36;;;;;;;15.32;4.18;;;;;13.20;97041.00;;;;8245550;28;20240;-67
2023/05/27 03:50:39;;;;;;;11.73;3.38;;;;;13.20;97036.00;;;;8262999;28;20209;-65
2023/05/27 03:54:49;;;;;;;13.73;3.92;;;;;13.20;97038.00;;;;8266309;28;20201;-64
2023/05/27 03:58:52;;;;;;;11.02;3.67;;;;;13.20;97034.00;;;;8287628;28;20652;-69
2023/05/27 04:02:56;;;;;;;12.20;4.13;;;;;13.30;97041.00;;;;8288521;28;20247;-68
2023/05/27 04:07:00;;;;;;;15.43;4.35;;;;;13.30;97040.00;;;;8288988;28;20303;-62
2023/05/27 04:11:08;;;;;;;25.13;4.50;;;;;13.40;97037.00;;;;8296100;28;20209;-66
2023/05/27 04:15:11;;;;;;;12.68;3.78;;;;;13.50;97046.00;;;;8293937;28;20200;-61
2023/05/27 04:19:16;;;;;;;14.15;3.35;;;;;13.60;97044.00;;;;8295447;28;20241;-65
2023/05/27 04:23:19;;;;;;;12.60;3.90;;;;;13.60;97044.00;;;;8303519;28;20200;-62
2023/05/27 04:27:26;;;;;;;15.05;3.78;;;;;13.80;97053.00;;;;8293055;28;20292;-69
2023/05/27 04:31:30;;;;;;;11.15;3.65;;;;;13.80;97051.00;;;;8294721;28;20729;-63
2023/05/27 04:35:37;;;;;;;9.55;3.47;;;;;13.90;97053.00;;;;8305278;28;20671;-67
2023/05/27 04:39:45;;;;;;;11.75;3.38;;;;;14.20;97057.00;;;;8292874;28;20295;-67
2023/05/27 04:43:52;;;;;;;9.50;3.15;;;;;14.60;97065.00;;;;8298530;28;20239;-67
2023/05/27 04:47:57;;;;;;;9.38;3.20;;;;;14.80;97057.00;;;;8269779;28;20213;-62
2023/05/27 04:52:01;;;;;;;13.95;3.70;;;;;15.10;97058.00;;;;8303482;28;20231;-64
2023/05/27 04:56:08;;;;;;;23.60;3.97;;;;;14.90;97055.00;;;;8292989;28;20648;-63
2023/05/27 05:00:22;;;;;;;9.52;3.47;;;;;14.80;97058.00;;;;8292810;28;20321;-61
2023/05/27 05:04:26;;;;;;;16.63;3.35;;;;;15.10;97062.00;;;;8283879;28;20247;-63
2023/05/27 05:08:30;;;;;;;9.45;3.78;;;;;15.30;97056.00;;;;8282799;28;21042;-63
2023/05/27 05:12:41;;;;;;;8.82;3.95;;;;;15.10;97056.00;;;;8282468;28;20903;-65
2023/05/27 05:16:46;;;;;;;10.32;3.55;;;;;15.10;97056.00;;;;8292952;28;20202;-66
2023/05/27 05:20:53;;;;;;;10.20;2.92;;;;;15.60;97056.00;;;;8302605;28;20292;-66
2023/05/27 05:25:01;;;;;;;8.27;4.03;;;;;15.70;97054.00;;;;8298945;28;20313;-67
2023/05/27 05:29:04;;;;;;;12.00;3.80;;;;;15.70;97062.00;;;;8302274;28;20563;-66
2023/05/27 05:33:09;;;;;;;14.82;3.70;;;;;15.60;97065.00;;;;8301053;28;20206;-65
2023/05/27 05:37:12;;;;;;;13.02;3.80;;;;;15.70;97062.00;;;;8287932;28;20714;-66
2023/05/27 05:41:16;;;;;;;14.68;3.63;;;;;15.70;97070.00;;;;8309001;28;20306;-65
2023/05/27 05:45:22;;;;;;;9.48;3.17;;;;;15.60;97067.00;;;;8308893;28;20237;-66
2023/05/27 05:49:30;;;;;;;13.85;3.80;;;;;15.60;97067.00;;;;8300945;28;20206;-62
2023/05/27 05:53:33;;;;;;;8.10;3.55;;;;;15.60;97067.00;;;;8292592;28;20293;-71
2023/05/27 05:57:41;;;;;;;14.63;3.80;;;;;15.80;97070.00;;;;8304228;28;20279;-64
2023/05/27 06:01:48;;;;;;;13.65;3.92;;;;;16.00;97073.00;;;;8293788;28;20660;-72
2023/05/27 06:05:55;;;;;;;10.07;3.47;;;;;16.30;97087.00;;;;8308895;28;20320;-67
2023/05/27 06:09:58;;;;;;;12.63;3.78;;;;;16.70;97090.00;;;;8300611;28;20313;-63
2023/05/27 06:14:02;;;;;;;12.88;3.60;;;;;17.00;97088.00;;;;8299576;28;20563;-67
2023/05/27 06:18:05;;;;;;;13.55;4.18;;;;;17.10;97084.00;;;;8297176;28;20586;-67
2023/05/27 06:22:10;;;;;;;14.82;3.58;;;;;17.00;97088.00;;;;8296402;28;20325;-76
2023/05/27 06:26:17;;;;;;;10.07;3.50;;;;;17.30;97087.00;;;;8294115;28;20225;-68
2023/05/27 06:30:21;;;;;;;15.45;3.97;;;;;17.70;97094.00;;;;8301562;28;20288;-63
2023/05/27 06:34:26;;;;;;;11.27;3.35;;;;;17.90;97092.00;;;;8296076;28;20213;-68
2023/05/27 06:38:33;;;;;;;11.70;4.03;;;;;18.40;97088.00;;;;8286454;28;20376;-66
2023/05/27 06:42:40;;;;;;;9.88;3.97;;;;;18.80;97087.00;;;;8287515;28;20221;-63
2023/05/27 06:46:43;;;;;;;7.43;3.45;;;;;18.80;97097.00;;;;8299833;28;20270;-62
2023/05/27 06:50:47;;;;;;;9.18;3.60;;;;;18.90;97092.00;;;;8300146;28;20293;-70
2023/05/27 06:54:52;;;;;;;13.32;4.03;;;;;19.20;97106.00;;;;8289142;28;20202;-64
2023/05/27 06:58:58;;;;;;;16.67;4.60;;;;;19.40;97089.00;;;;8308423;28;20590;-66
2023/05/27 07:03:05;;;;;;;11.52;4.15;;;;;19.40;97091.00;;;;8278291;28;20275;-67
2023/05/27 07:07:08;;;;;;;16.98;4.15;;;;;19.60;97091.00;;;;8277466;28;20288;-67
2023/05/27 07:11:14;;;;;;;11.90;3.25;;;;;20.00;97101.00;;;;8305763;28;20220;-65
2023/05/27 07:15:19;;;;;;;17.33;4.38;;;;;20.10;97106.00;;;;8290812;28;20214;-65
2023/05/27 07:19:23;;;;;;;17.98;4.05;;;;;20.00;97094.00;;;;8301931;28;20245;-63
2023/05/27 07:23:26;;;;;;;9.82;3.80;;;;;20.20;97096.00;;;;8296102;28;20206;-68
2023/05/27 07:27:31;;;;;;;18.50;4.30;;;;;20.10;97101.00;;;;8293971;28;20233;-65
2023/05/27 07:31:38;;;;;;;12.93;4.53;;;;;20.00;97101.00;;;;8299759;28;20237;-64
2023/05/27 07:35:41;;;;;;;14.63;4.30;;;;;20.10;97097.00;;;;8303696;28;20198;-64
2023/05/27 07:39:47;;;;;;;13.30;4.10;;;;;20.30;97092.00;;;;8299169;28;20616;-70
2023/05/27 07:43:53;;;;;;;10.80;3.88;;;;;20.40;97092.00;;;;8301031;28;20197;-61
2023/05/27 07:47:57;;;;;;;9.50;3.63;;;;;20.50;97085.00;;;;8275625;28;20280;-65
2023/05/27 07:52:00;;;;;;;16.30;4.68;;;;;20.80;97085.00;;;;8295520;28;20301;-67
2023/05/27 07:56:04;;;;;;;11.60;3.40;;;;;21.30;97085.00;;;;8293922;28;20210;-66
2023/05/27 08:00:13;;;;;;;14.45;3.83;;;;;21.50;97083.00;;;;8287850;28;20747;-70
2023/05/27 08:04:17;;;;;;;12.60;4.15;;;;;22.00;97077.00;;;;8299841;28;20222;-65
2023/05/27 08:08:26;;;;;;;11.63;4.00;;;;;22.60;97086.00;;;;8300930;28;20233;-67
2023/05/27 08:12:30;;;;;;;16.50;4.53;;;;;22.50;97082.00;;;;8297230;28;20308;-66
2023/05/27 08:16:35;;;;;;;10.07;3.45;;;;;22.30;97066.00;;;;8292395;28;20216;-67
2023/05/27 08:20:38;;;;;;;10.45;3.80;;;;;21.90;97070.00;;;;8286119;28;20308;-62
2023/05/27 08:24:43;;;;;;;12.27;3.63;;;;;22.30;97068.00;;;;8290684;28;20533;-66
2023/05/27 08:28:51;;;;;;;16.33;3.97;;;;;22.70;97066.00;;;;8294008;28;20599;-67
2023/05/27 08:32:55;;;;;;;10.93;3.72;;;;;22.90;97060.00;;;;8286182;28;20233;-65
2023/05/27 08:37:05;;;;;;;9.25;3.80;;;;;22.90;97061.00;;;;8287919;28;20202;-62
2023/05/27 08:41:08;;;;;;;12.63;4.25;;;;;23.20;97061.00;;;;8298467;28;20229;-64
2023/05/27 08:45:12;;;;;;;10.90;3.72;;;;;23.50;97047.00;;;;8309493;28;22280;-64
2023/05/27 08:49:18;;;;;;;13.85;4.22;;;;;24.00;97054.00;;;;8288209;28;20213;-74
2023/05/27 08:53:23;;;;;;;17.52;4.15;;;;;23.90;97057.00;;;;8303092;28;20205;-65
2023/05/27 08:57:29;;;;;;;16.52;4.22;;;;;23.80;97057.00;;;;8294515;28;20201;-61
2023/05/27 09:01:33;;;;;;;12.00;4.18;;;;;24.10;97059.00;;;;8307532;28;20218;-69
2023/05/27 09:05:40;;;;;;;13.73;4.35;;;;;24.20;97054.00;;;;8292065;28;20233;-64
2023/05/27 09:09:56;;;;;;;14.13;4.00;;;;;24.80;97048.00;;;;8298091;28;20289;-66
2023/05/27 09:14:01;;;;;;;11.50;4.10;;;;;25.40;97047.00;;;;8305614;28;20324;-65
2023/05/27 09:18:06;;;;;;;14.63;4.78;;;;;25.70;97040.00;;;;8286988;28;20206;-64
2023/05/27 09:22:20;;;;;;;14.30;4.00;;;;;26.20;97044.00;;;;8295281;28;20292;-68
2023/05/27 09:26:25;;;;;;;12.55;3.70;;;;;27.00;97037.00;;;;8291611;28;20309;-66
2023/05/27 09:30:28;;;;;;;10.52;3.75;;;;;27.50;97042.00;;;;8294803;28;20618;-66
2023/05/27 09:34:31;;;;;;;12.27;4.18;;;;;27.90;97038.00;;;;8297153;28;20647;-67
2023/05/27 09:38:39;;;;;;;13.80;4.13;;;;;27.80;97036.00;;;;8291047;28;20218;-66
2023/05/27 09:42:47;;;;;;;9.38;4.15;;;;;27.60;97029.00;;;;8292008;28;20233;-67
2023/05/27 09:46:55;;;;;;;11.30;3.97;;;;;27.60;97027.00;;;;8294145;28;20244;-64
2023/05/27 09:51:01;;;;;;;8.77;3.80;;;;;28.00;97025.00;;;;8289895;28;20205;-72
2023/05/27 09:55:11;;;;;;;11.15;4.10;;;;;28.80;97029.00;;;;8307756;28;20205;-64
2023/05/27 09:59:19;;;;;;;8.48;3.85;;;;;29.20;97020.00;;;;8306680;28;20690;-64
2023/05/27 10:03:27;;;;;;;10.30;3.83;;;;;29.20;97014.00;;;;8296321;28;20326;-70
2023/05/27 10:07:34;;;;;;;11.85;4.20;;;;;28.50;97012.00;;;;8290444;28;20761;-66
2023/05/27 10:11:45;;;;;;;8.65;3.97;;;;;28.20;97006.00;;;;8296102;28;20205;-68
2023/05/27 10:15:52;;;;;;;12.98;4.47;;;;;27.40;97001.00;;;;8275746;28;20216;-66
2023/05/27 10:19:56;;;;;;;9.85;3.92;;;;;27.20;96993.00;;;;8296768;28;20208;-63
2023/05/27 10:24:01;;;;;;;9.77;4.00;;;;;27.40;97001.00;;;;8288745;28;20297;-68
2023/05/27 10:28:09;;;;;;;13.18;3.92;;;;;26.90;96990.00;;;;8289078;28;20222;-63
2023/05/27 10:32:15;;;;;;;12.55;3.22;;;;;27.10;96992.00;;;;8305724;28;20193;-63
2023/05/27 10:36:23;;;;;;;12.32;4.03;;;;;27.50;96975.00;;;;8298953;28;20200;-64
2023/05/27 10:40:28;;;;;;;10.68;3.80;;;;;27.60;96985.00;;;;8290985;28;20285;-65
2023/05/27 10:44:37;;;;;;;8.43;3.78;;;;;28.40;96980.00;;;;8278070;28;20272;-67
2023/05/27 10:48:40;;;;;;;5.85;3.53;;;;;29.00;96972.00;;;;8290877;28;20241;-69
2023/05/27 10:52:49;;;;;;;6.40;3.47;;;;;29.00;96977.00;;;;8301600;28;20213;-71
2023/05/27 10:56:55;;;;;;;7.35;3.33;;;;;28.40;96974.00;;;;8276597;28;20607;-64
2023/05/27 11:01:07;;;;;;;10.35;4.10;;;;;27.90;96972.00;;;;8296345;28;20202;-62
2023/05/27 11:05:16;;;;;;;12.48;3.72;;;;;28.20;96963.00;;;;8299222;28;20924;-64
2023/05/27 11:09:22;;;;;;;22.45;3.70;;;;;29.20;96967.00;;;;8290468;28;20299;-72
2023/05/27 11:13:34;;;;;;;10.38;3.63;;;;;29.30;96960.00;;;;8292529;28;20289;-65
2023/05/27 11:17:42;;;;;;;7.35;3.30;;;;;29.40;96972.00;;;;8289016;28;20210;-68
2023/05/27 11:21:49;;;;;;;8.50;3.58;;;;;29.20;96964.00;;;;8286141;28;20989;-68
2023/05/27 11:25:52;;;;;;;10.93;3.40;;;;;29.50;96959.00;;;;8293760;28;20238;-62
2023/05/27 11:29:57;;;;;;;9.20;3.65;;;;;30.20;96950.00;;;;8297307;28;20205;-64
2023/05/27 11:34:04;;;;;;;6.57;3.53;;;;;31.10;96939.00;;;;8292015;28;20236;-63
2023/05/27 11:38:18;;;;;;;9.13;3.67;;;;;30.90;96942.00;;;;8296979;28;20216;-62
2023/05/27 11:42:24;;;;;;;8.98;4.10;;;;;30.60;96941.00;;;;8287441;28;20288;-67
2023/05/27 11:46:40;;;;;;;8.55;3.55;;;;;30.40;96932.00;;;;8297705;28;20245;-64
2023/05/27 11:50:47;;;;;;;7.03;3.58;;;;;30.90;96940.00;;;;8290678;28;20305;-68
2023/05/27 11:54:52;;;;;;;12.02;3.00;;;;;30.30;96922.00;;;;8289820;28;20280;-68
2023/05/27 11:59:01;;;;;;;7.15;3.47;;;;;30.40;96919.00;;;;8294871;28;20226;-66
2023/05/27 12:03:06;;;;;;;7.85;3.55;;;;;30.80;96928.00;;;;8290608;28;20277;-63
2023/05/27 12:07:14;;;;;;;9.48;3.47;;;;;31.20;96920.00;;;;8290779;28;20255;-67
2023/05/27 12:11:23;;;;;;;8.20;3.67;;;;;31.70;96910.00;;;;8294960;28;20678;-67
2023/05/27 12:15:27;;;;;;;8.77;3.78;;;;;32.00;96900.00;;;;8293574;28;20202;-64
2023/05/27 12:19:34;;;;;;;7.00;3.65;;;;;32.00;96900.00;;;;8293825;28;20222;-64
2023/05/27 12:23:43;;;;;;;7.45;3.17;;;;;31.80;96895.00;;;;8284482;28;20242;-64
2023/05/27 12:27:49;;;;;;;8.90;3.72;;;;;31.50;96892.00;;;;8292229;28;20221;-67
2023/05/27 12:31:52;;;;;;;8.02;3.42;;;;;30.40;96896.00;;;;8294530;28;20240;-62
2023/05/27 12:36:00;;;;;;;4.63;3.30;;;;;29.00;96892.00;;;;8302534;28;20201;-65
2023/05/27 12:40:09;;;;;;;8.93;3.50;;;;;28.20;96893.00;;;;8300251;28;20308;-66
2023/05/27 12:44:19;;;;;;;9.32;3.88;;;;;27.20;96888.00;;;;8279925;28;20212;-63
2023/05/27 12:48:25;;;;;;;8.35;3.55;;;;;26.50;96876.00;;;;8304049;28;20236;-63
2023/05/27 12:52:28;;;;;;;7.18;3.00;;;;;26.20;96880.00;;;;8297648;28;20296;-62
2023/05/27 12:56:35;;;;;;;7.00;3.38;;;;;26.10;96875.00;;;;8308350;28;20802;-67
2023/05/27 13:00:41;;;;;;;9.63;3.63;;;;;26.00;96864.00;;;;8301065;28;20216;-65
2023/05/27 13:04:46;;;;;;;8.90;3.80;;;;;25.70;96867.00;;;;8287610;28;20262;-68
2023/05/27 13:08:49;;;;;;;8.82;3.78;;;;;25.70;96846.00;;;;8305277;28;20264;-68
2023/05/27 13:12:56;;;;;;;6.20;3.92;;;;;26.20;96856.00;;;;8300415;28;20297;-63
2023/05/27 13:16:59;;;;;;;7.35;3.65;;;;;26.60;96847.00;;;;8299783;28;20300;-62
2023/05/27 13:21:04;;;;;;;12.63;3.65;;;;;26.90;96844.00;;;;8302404;28;20209;-64
2023/05/27 13:25:15;;;;;;;10.50;3.58;;;;;27.30;96851.00;;;;8304117;28;20946;-64
2023/05/27 13:29:26;;;;;;;13.98;4.68;;;;;27.50;96837.00;;;;8308950;28;20307;-63
2023/05/27 13:33:31;;;;;;;15.88;4.35;;;;;28.40;96841.00;;;;8302159;28;20209;-66
2023/05/27 13:37:39;;;;;;;6.97;3.85;;;;;28.50;96841.00;;;;8302076;28;20198;-65
2023/05/27 13:41:42;;;;;;;7.93;3.47;;;;;28.80;96840.00;;;;8293599;28;20336;-65
2023/05/27 13:45:47;;;;;;;5.63;3.15;;;;;29.50;96829.00;;;;8292885;28;20826;-64
2023/05/27 13:49:52;;;;;;;11.50;3.90;;;;;29.80;96831.00;;;;8296243;28;20284;-65
2023/05/27 13:53:56;;;;;;;8.23;3.70;;;;;29.90;96820.00;;;;8300504;28;20800;-63
2023/05/27 13:57:59;;;;;;;8.90;3.78;;;;;29.30;96812.00;;;;8292995;28;20679;-62
2023/05/27 14:02:05;;;;;;;7.68;3.30;;;;;29.90;96801.00;;;;8298600;28;20202;-66
2023/05/27 14:06:09;;;;;;;5.82;3.10;;;;;30.70;96807.00;;;;8293566;28;20229;-64
2023/05/27 14:10:12;;;;;;;7.07;3.35;;;;;30.10;96797.00;;;;8289569;28;20234;-64
2023/05/27 14:14:15;;;;;;;10.80;4.28;;;;;30.40;96800.00;;;;8290976;28;20678;-66
2023/05/27 14:18:20;;;;;;;5.90;3.10;;;;;30.10;96795.00;;;;8289086;28;20285;-66
2023/05/27 14:22:24;;;;;;;9.43;4.25;;;;;29.60;96796.00;;;;8293573;28;20216;-66
2023/05/27 14:26:30;;;;;;;8.95;4.00;;;;;29.80;96787.00;;;;8296048;28;20647;-64
2023/05/27 14:30:36;;;;;;;10.50;3.85;;;;;29.60;96787.00;;;;8297140;28;20263;-66
2023/05/27 14:34:41;;;;;;;9.88;4.10;;;;;29.40;96774.00;;;;8294029;28;20210;-65
2023/05/27 14:38:44;;;;;;;10.98;3.55;;;;;28.90;96773.00;;;;8286063;28;20289;-66
2023/05/27 14:42:47;;;;;;;11.70;3.63;;;;;28.30;96776.00;;;;8295827;28;20234;-69
2023/05/27 14:46:52;;;;;;;10.48;4.45;;;;;27.90;96771.00;;;;8290943;28;20575;-64
2023/05/27 14:50:59;;;;;;;11.65;4.00;;;;;27.90;96763.00;;;;8285752;28;20259;-65
2023/05/27 14:55:03;;;;;;;10.30;4.22;;;;;28.10;96760.00;;;;8294605;28;20198;-63
2023/05/27 14:59:06;;;;;;;8.48;3.50;;;;;27.90;96766.00;;;;8292147;28;20206;-66
2023/05/27 15:03:12;;;;;;;8.32;3.70;;;;;27.70;96769.00;;;;8285060;28;20268;-64
2023/05/27 15:07:22;;;;;;;8.23;3.70;;;;;27.80;96764.00;;;;8285647;28;20202;-64
2023/05/27 15:11:29;;;;;;;5.85;3.25;;;;;27.80;96762.00;;;;8289378;28;20205;-63
2023/05/27 15:15:32;;;;;;;21.67;4.07;;;;;27.70;96756.00;;;;8303001;28;20313;-67
2023/05/27 15:19:35;;;;;;;8.38;3.97;;;;;27.80;96755.00;;;;8311053;28;21487;-68
2023/05/27 15:23:43;;;;;;;14.32;3.88;;;;;27.80;96742.00;;;;8294656;28;20384;-64
2023/05/27 15:27:48;;;;;;;10.32;3.92;;;;;27.80;96742.00;;;;8282866;28;20861;-64
2023/05/27 15:31:55;;;;;;;8.95;3.97;;;;;27.90;96745.00;;;;8297544;28;20225;-66
2023/05/27 15:35:58;;;;;;;12.95;3.47;;;;;27.90;96747.00;;;;8282241;28;20245;-65
2023/05/27 15:40:03;;;;;;;12.75;3.58;;;;;27.90;96736.00;;;;8286150;28;20539;-65
2023/05/27 15:44:09;;;;;;;7.68;3.22;;;;;27.80;96736.00;;;;8309686;28;20204;-63
2023/05/27 15:48:14;;;;;;;8.10;3.42;;;;;27.90;96732.00;;;;8288051;28;20241;-65
2023/05/27 15:52:20;;;;;;;7.40;3.78;;;;;27.90;96723.00;;;;8288528;28;20249;-69
2023/05/27 15:56:28;;;;;;;6.65;3.67;;;;;27.80;96730.00;;;;8290522;28;20233;-64
2023/05/27 16:00:32;;;;;;;7.10;3.92;;;;;27.70;96730.00;;;;8296056;28;20703;-69
2023/05/27 16:04:37;;;;;;;8.05;4.13;;;;;27.70;96721.00;;;;8294594;28;20240;-65
2023/05/27 16:08:41;;;;;;;6.65;3.50;;;;;27.60;96721.00;;;;8275245;28;20226;-66
2023/05/27 16:12:46;;;;;;;11.32;4.15;;;;;27.50;96708.00;;;;8296429;28;20209;-63
2023/05/27 16:16:49;;;;;;;7.10;3.65;;;;;27.50;96717.00;;;;8297194;28;20205;-67
2023/05/27 16:20:53;;;;;;;8.20;3.55;;;;;27.50;96711.00;;;;8288488;28;20622;-64
2023/05/27 16:24:58;;;;;;;8.52;3.53;;;;;27.50;96702.00;;;;8293149;28;20198;-65
2023/05/27 16:29:04;;;;;;;11.65;3.90;;;;;27.10;96701.00;;;;8291158;28;20234;-66
2023/05/27 16:33:08;;;;;;;9.45;3.72;;;;;27.10;96709.00;;;;8296382;28;20198;-63
2023/05/27 16:37:11;;;;;;;8.45;3.60;;;;;27.10;96700.00;;;;8294427;28;20202;-66
2023/05/27 16:41:23;;;;;;;10.98;3.78;;;;;26.90;96698.00;;;;8296379;28;20532;-63
2023/05/27 16:45:30;;;;;;;7.78;3.97;;;;;26.90;96700.00;;;;8290599;28;20687;-65
2023/05/27 16:49:46;;;;;;;9.93;3.78;;;;;26.90;96694.00;;;;8293720;28;20755;-68
2023/05/27 16:53:49;;;;;;;10.60;3.72;;;;;27.00;96703.00;;;;8288283;28;20628;-64
2023/05/27 16:57:55;;;;;;;10.13;3.60;;;;;27.00;96702.00;;;;8289802;28;20206;-66
2023/05/27 17:02:00;;;;;;;8.52;3.50;;;;;26.90;96685.00;;;;8291822;28;20231;-63
2023/05/27 17:06:08;;;;;;;10.35;4.10;;;;;27.00;96690.00;;;;8288340;28;20207;-64
2023/05/27 17:10:15;;;;;;;12.00;3.80;;;;;26.90;96685.00;;;;8286911;28;20222;-67
2023/05/27 17:14:18;;;;;;;8.50;3.58;;;;;26.80;96678.00;;;;8295779;28;20202;-62
2023/05/27 17:18:24;;;;;;;11.20;4.05;;;;;26.90;96675.00;;;;8290741;28;20304;-66
2023/05/27 17:22:30;;;;;;;8.65;4.10;;;;;26.80;96677.00;;;;8298028;28;20217;-66
2023/05/27 17:26:36;;;;;;;8.48;4.35;;;;;26.70;96679.00;;;;8286879;28;20219;-63
2023/05/27 17:30:42;;;;;;;8.73;3.47;;;;;26.60;96682.00;;;;8286789;28;20262;-66
2023/05/27 17:34:51;;;;;;;8.65;3.40;;;;;26.60;96677.00;;;;8298015;28;20293;-63
2023/05/27 17:39:03;;;;;;;7.78;3.63;;;;;26.50;96671.00;;;;8285856;28;20293;-64
2023/05/27 17:43:13;;;;;;;7.18;3.13;;;;;26.20;96674.00;;;;8299290;28;21040;-63
2023/05/27 17:47:19;;;;;;;11.50;3.70;;;;;26.00;96672.00;;;;8290583;28;20209;-66
2023/05/27 17:51:24;;;;;;;17.48;3.58;;;;;25.60;96675.00;;;;8296398;28;20324;-64
2023/05/27 17:55:29;;;;;;;10.70;3.33;;;;;24.90;96670.00;;;;8290351;28;20217;-66
2023/05/27 17:59:32;;;;;;;11.25;3.90;;;;;24.00;96675.00;;;;8287747;28;20730;-65
2023/05/27 18:03:35;;;;;;;26.83;4.22;;;;;23.30;96664.00;;;;8289585;28;20329;-66
2023/05/27 18:07:41;;;;;;;6.50;3.63;;;;;22.90;96665.00;;;;8288569;28;20232;-68
2023/05/27 18:11:47;;;;;;;11.82;3.88;;;;;22.40;96664.00;;;;8290503;28;20241;-67
2023/05/27 18:15:50;;;;;;;6.88;3.35;;;;;22.00;96666.00;;;;8286765;28;20292;-67
2023/05/27 18:19:54;;;;;;;11.18;4.10;;;;;21.70;96664.00;;;;8293866;28;20301;-69
2023/05/27 18:23:58;;;;;;;5.45;3.20;;;;;21.40;96664.00;;;;8291150;28;20206;-65
2023/05/27 18:28:01;;;;;;;7.35;3.30;;;;;21.10;96664.00;;;;8294083;28;20212;-67
2023/05/27 18:32:05;;;;;;;8.68;3.33;;;;;20.90;96670.00;;;;8299608;28;20256;-62
2023/05/27 18:36:08;;;;;;;11.20;3.53;;;;;20.70;96668.00;;;;8294234;28;20769;-65
2023/05/27 18:40:13;;;;;;;10.52;3.88;;;;;20.40;96670.00;;;;8300853;28;20217;-66
2023/05/27 18:44:21;;;;;;;12.63;3.30;;;;;20.30;96672.00;;;;8290823;28;20301;-66
2023/05/27 18:48:27;;;;;;;6.75;3.38;;;;;20.10;96676.00;;;;8290726;28;20302;-68
2023/05/27 18:52:30;;;;;;;8.20;4.20;;;;;19.90;96672.00;;;;8287087;28;20590;-68
2023/05/27 18:56:34;;;;;;;8.35;4.20;;;;;19.70;96679.00;;;;8291003;28;20205;-68
2023/05/27 19:00:37;;;;;;;6.45;3.20;;;;;19.50;96682.00;;;;8293240;28;20202;-66
2023/05/27 19:04:44;;;;;;;8.88;3.50;;;;;19.30;96678.00;;;;8297257;28;20715;-65
2023/05/27 19:08:50;;;;;;;5.93;3.50;;;;;19.10;96688.00;;;;8283652;28;20297;-70
2023/05/27 19:12:55;;;;;;;10.82;3.97;;;;;18.80;96678.00;;;;8284081;28;20285;-62
2023/05/27 19:17:03;;;;;;;8.43;3.42;;;;;18.60;96679.00;;;;8288594;28;21006;-70
2023/05/27 19:21:06;;;;;;;12.75;3.80;;;;;18.30;96681.00;;;;8296463;28;20203;-67
2023/05/27 19:25:09;;;;;;;7.97;3.53;;;;;17.90;96683.00;;;;8299905;28;20741;-65
2023/05/27 19:29:15;;;;;;;10.70;4.20;;;;;17.60;96674.00;;;;8272587;28;20434;-68
2023/05/27 19:33:18;;;;;;;10.15;4.20;;;;;17.40;96685.00;;;;8265749;28;20817;-71
2023/05/27 19:37:21;;;;;;;8.82;3.70;;;;;17.10;96682.00;;;;8282112;28;20836;-63
2023/05/27 19:41:24;;;;;;;11.38;3.85;;;;;16.80;96683.00;;;;8288013;28;20616;-64
2023/05/27 19:45:29;;;;;;;13.70;4.10;;;;;16.50;96688.00;;;;8285415;28;20204;-69
2023/05/27 19:49:35;;;;;;;8.38;4.18;;;;;16.20;96690.00;;;;8274327;28;20273;-66
2023/05/27 19:53:41;;;;;;;19.20;4.72;;;;;16.00;96690.00;;;;8277378;28;20216;-70
2023/05/27 19:57:51;;;;;;;6.63;3.70;;;;;15.70;96686.00;;;;8287475;28;20206;-61
2023/05/27 20:01:56;;;;;;;10.40;4.70;;;;;15.60;96686.00;;;;8291070;28;20755;-68
2023/05/27 20:05:59;;;;;;;11.35;4.13;;;;;15.40;96681.00;;;;8285532;28;20257;-64
2023/05/27 20:10:07;;;;;;;7.60;4.00;;;;;15.30;96681.00;;;;8298323;28;20275;-69
2023/05/27 20:14:11;;;;;;;8.50;3.63;;;;;15.20;96691.00;;;;8292181;28;20204;-67
2023/05/27 20:18:18;;;;;;;9.00;3.90;;;;;15.20;96683.00;;;;8290222;28;20267;-67
2023/05/27 20:22:21;;;;;;;8.45;4.03;;;;;15.20;96682.00;;;;8298031;28;20272;-65